Anna Noli — IZEL — position and weather

sailwx.info

Track history (hours):
 
Tides and Currents Weather Stations Pressure Air Temp Water Temp Dewpoint Dewpoint Depression Visibility Wind Speed Wind Dir Waves Ship Positions

Anna Noli

Last reported at 2017-Dec-16 10:44 UTC. Time now 2017-Dec-17 04:25 UTC.
Position N 44°19' E 008°29'.

Type: Tug. MMSI: 247046500.

Date/timePositionNaut miles runAvg speedWind from/ knotsBaromVisibWave heightAir tempDewpointWater temp
2017-Dec-16 10:44N 44°19' E 008°29'0 0.0
2017-Dec-16 10:26N 44°19' E 008°29'0 0.0
2017-Dec-16 09:59N 44°19' E 008°29'0 0.0
2017-Dec-16 09:23N 44°19' E 008°29'0 0.0
2017-Dec-16 08:59N 44°19' E 008°29'0 0.0
2017-Dec-16 08:29N 44°19' E 008°29'0 0.0
2017-Dec-16 07:53N 44°19' E 008°29'0 0.0
2017-Dec-16 07:29N 44°19' E 008°29'0 0.0
2017-Dec-16 06:59N 44°19' E 008°29'0 0.0
2017-Dec-16 06:29N 44°19' E 008°29'0 0.0
2017-Dec-16 05:59N 44°19' E 008°29'0 0.0
2017-Dec-16 05:29N 44°19' E 008°29'0 0.0
2017-Dec-16 04:59N 44°19' E 008°29'0 0.0
2017-Dec-16 04:29N 44°19' E 008°29'0 0.0
2017-Dec-16 03:59N 44°19' E 008°29'0 0.0
2017-Dec-16 03:29N 44°19' E 008°29'0 0.0
2017-Dec-16 02:59N 44°19' E 008°29'0 0.0
2017-Dec-16 02:29N 44°19' E 008°29'0 0.0
2017-Dec-16 01:59N 44°19' E 008°29'0 0.0
2017-Dec-16 01:29N 44°19' E 008°29'0 0.0
2017-Dec-16 00:59N 44°19' E 008°29'0 0.0
2017-Dec-16 00:29N 44°19' E 008°29'0 0.0
2017-Dec-15 23:59N 44°19' E 008°29'0 0.0
2017-Dec-15 23:29N 44°19' E 008°29'0 0.0
2017-Dec-15 22:59N 44°19' E 008°29'0 0.0
2017-Dec-15 22:29N 44°19' E 008°29'0 0.0
2017-Dec-15 21:59N 44°19' E 008°29'0 0.0
2017-Dec-15 21:29N 44°19' E 008°29'0 0.0
2017-Dec-15 20:53N 44°19' E 008°29'0 0.0
2017-Dec-15 20:29N 44°19' E 008°29'0 0.0
2017-Dec-15 19:59N 44°19' E 008°29'0 0.0
2017-Dec-15 19:29N 44°19' E 008°29'0 0.0
2017-Dec-15 18:59N 44°19' E 008°29'0 0.0
2017-Dec-15 18:29N 44°19' E 008°29'0 0.0
2017-Dec-15 17:59N 44°19' E 008°29'0 0.0
2017-Dec-15 17:29N 44°19' E 008°29'0 0.0
2017-Dec-15 16:59N 44°19' E 008°29'0 0.0
2017-Dec-15 16:29N 44°19' E 008°29'0 0.0
2017-Dec-15 15:59N 44°19' E 008°29'0 0.0
2017-Dec-15 15:29N 44°19' E 008°29'0 0.0
2017-Dec-15 14:59N 44°19' E 008°29'0 0.0
2017-Dec-15 14:29N 44°19' E 008°29'0 0.0
2017-Dec-15 13:56N 44°19' E 008°29'0 0.0
2017-Dec-15 13:26N 44°19' E 008°29'0 0.0
2017-Dec-15 12:56N 44°19' E 008°29'0 0.0
2017-Dec-15 12:26N 44°19' E 008°29'0 0.0
2017-Dec-15 11:56N 44°19' E 008°29'0 0.0
2017-Dec-15 11:29N 44°19' E 008°29'0 0.0
2017-Dec-15 10:59N 44°19' E 008°29'0 0.0
2017-Dec-15 10:26N 44°19' E 008°29'2 5.2
2017-Dec-15 10:00N 44°16' E 008°30'5 9.6
2017-Dec-15 09:30N 44°12' E 008°27'4 8.8
2017-Dec-15 09:00N 44°08' E 008°25'11 9.6
2017-Dec-15 07:50N 43°59' E 008°15'11 0.4
2017-Dec-14 06:32N 44°07' E 008°24'010.3
2017-Dec-14 06:30N 44°08' E 008°24'611.5
2017-Dec-14 06:00N 44°13' E 008°28'611.7
2017-Dec-14 05:30N 44°18' E 008°30'1 1.2
2017-Dec-14 04:55N 44°19' E 008°29'0 0.0
2017-Dec-13 21:07N 44°19' E 008°29'0 0.0
2017-Dec-13 20:43N 44°19' E 008°29'0 0.0
2017-Dec-13 19:31N 44°19' E 008°29'0 0.0
2017-Dec-13 19:19N 44°19' E 008°29'0 0.0
2017-Dec-13 18:55N 44°19' E 008°29'0 0.0
2017-Dec-13 18:25N 44°19' E 008°29'0 0.0
2017-Dec-13 17:55N 44°19' E 008°29'0 0.0
2017-Dec-13 17:25N 44°19' E 008°29'0 0.0
2017-Dec-13 16:37N 44°19' E 008°29'0 0.0
2017-Dec-13 15:46N 44°19' E 008°29'0 0.0
2017-Dec-13 15:28N 44°19' E 008°29'0 0.0
2017-Dec-13 14:58N 44°19' E 008°29'0 0.0
2017-Dec-13 14:22N 44°19' E 008°29'0 0.0
2017-Dec-13 13:58N 44°19' E 008°29'0 0.0
2017-Dec-13 13:28N 44°19' E 008°29'0 0.0
2017-Dec-13 12:58N 44°19' E 008°29'0 0.0
2017-Dec-13 12:28N 44°19' E 008°29'0 0.0
2017-Dec-13 11:49N 44°19' E 008°29'0 0.0
2017-Dec-13 11:25N 44°19' E 008°29'0 0.0
2017-Dec-13 10:49N 44°19' E 008°29'0 0.0
2017-Dec-13 10:25N 44°19' E 008°29'0 0.0
2017-Dec-13 09:55N 44°19' E 008°29'0 0.0
2017-Dec-13 09:28N 44°19' E 008°29'0 0.0
2017-Dec-13 08:55N 44°19' E 008°29'0 0.0
2017-Dec-13 08:25N 44°19' E 008°29'0 0.0
2017-Dec-13 07:55N 44°19' E 008°29'0 0.0
2017-Dec-13 07:28N 44°19' E 008°29'0 0.0
2017-Dec-13 06:55N 44°19' E 008°29'0 0.0
2017-Dec-13 06:25N 44°19' E 008°29'0 0.0
2017-Dec-13 05:55N 44°19' E 008°29'0 0.0
2017-Dec-13 05:28N 44°19' E 008°29'0 0.0
2017-Dec-13 04:55N 44°19' E 008°29'0 0.0
2017-Dec-13 04:25N 44°19' E 008°29'0 0.0
2017-Dec-13 03:58N 44°19' E 008°29'0 0.0
2017-Dec-13 03:25N 44°19' E 008°29'0 0.0
2017-Dec-13 02:58N 44°19' E 008°29'0 0.0
2017-Dec-13 02:25N 44°19' E 008°29'0 0.0
2017-Dec-13 01:55N 44°19' E 008°29'0 0.0
2017-Dec-13 01:25N 44°19' E 008°29'0 0.0
2017-Dec-13 00:55N 44°19' E 008°29'0 0.0
2017-Dec-13 00:25N 44°19' E 008°29'0 0.0
2017-Dec-12 23:55N 44°19' E 008°29'0 0.0
2017-Dec-12 23:25N 44°19' E 008°29'0 0.0
2017-Dec-12 22:55N 44°19' E 008°29'0 0.0
2017-Dec-12 22:25N 44°19' E 008°29'0 0.0
2017-Dec-12 21:55N 44°19' E 008°29'0 0.0
2017-Dec-12 21:25N 44°19' E 008°29'0 0.0
2017-Dec-12 20:55N 44°19' E 008°29'0 0.0
2017-Dec-12 20:25N 44°19' E 008°29'0 0.0
2017-Dec-12 19:55N 44°19' E 008°29'0 0.0
2017-Dec-12 19:19N 44°19' E 008°29'0 0.0
2017-Dec-12 18:55N 44°19' E 008°29'0 0.0
2017-Dec-12 18:28N 44°19' E 008°29'0 0.0
2017-Dec-12 17:58N 44°19' E 008°29'0 0.0
2017-Dec-12 17:25N 44°19' E 008°29'0 0.0
2017-Dec-12 16:49N 44°19' E 008°29'0 0.0
2017-Dec-12 16:25N 44°19' E 008°29'0 0.0
2017-Dec-12 15:55N 44°19' E 008°29'0 0.0
2017-Dec-12 15:25N 44°19' E 008°29'0 0.0
2017-Dec-12 14:58N 44°19' E 008°29'0 0.0
2017-Dec-12 14:28N 44°19' E 008°29'0 0.0
2017-Dec-12 13:55N 44°19' E 008°29'0 0.0
2017-Dec-12 13:25N 44°19' E 008°29'0 0.0
2017-Dec-12 12:58N 44°19' E 008°29'0 0.1
2017-Dec-12 12:31N 44°19' E 008°29'1 1.5
2017-Dec-12 12:00N 44°19' E 008°30'0 0.6
2017-Dec-12 11:26N 44°19' E 008°30'0 1.0
2017-Dec-12 10:58N 44°19' E 008°29'0 0.0
2017-Dec-12 10:28N 44°19' E 008°29'0 0.0
2017-Dec-12 09:58N 44°19' E 008°29'0 0.0
2017-Dec-12 09:28N 44°19' E 008°29'0 0.0
2017-Dec-12 08:58N 44°19' E 008°29'0 0.0
2017-Dec-12 08:28N 44°19' E 008°29'0 0.0
2017-Dec-12 06:07N 44°19' E 008°29'0 0.0
2017-Dec-12 05:49N 44°19' E 008°29'0 0.0
2017-Dec-11 23:40N 44°19' E 008°29'0 0.0
2017-Dec-11 22:01N 44°19' E 008°29'0 0.1
2017-Dec-11 21:47N 44°19' E 008°29'1 0.3
2017-Dec-11 19:47N 44°19' E 008°30'0 0.4
2017-Dec-11 19:26N 44°19' E 008°30'0 0.2
2017-Dec-11 19:00N 44°19' E 008°30'1 1.1
2017-Dec-11 18:30N 44°19' E 008°29'0 0.0
2017-Dec-11 18:00N 44°19' E 008°29'0 0.0
2017-Dec-11 17:30N 44°19' E 008°29'0 0.0
2017-Dec-11 17:00N 44°19' E 008°29'0 0.0
2017-Dec-11 16:30N 44°19' E 008°29'0 0.0
2017-Dec-11 16:00N 44°19' E 008°29'0 0.0
2017-Dec-11 15:30N 44°19' E 008°29'0 0.0
2017-Dec-11 15:00N 44°19' E 008°29'0 0.0
2017-Dec-11 14:30N 44°19' E 008°29'0 0.0
2017-Dec-11 14:00N 44°19' E 008°29'3 5.3
2017-Dec-11 13:30N 44°16' E 008°28'1 1.4
2017-Dec-11 12:59N 44°16' E 008°27'4 7.9
2017-Dec-11 12:30N 44°19' E 008°30'1 1.4
2017-Dec-11 12:00N 44°19' E 008°29'0 0.0
2017-Dec-11 11:30N 44°19' E 008°29'0 0.0
2017-Dec-11 11:00N 44°19' E 008°29'0 0.9
2017-Dec-11 10:30N 44°19' E 008°30'0 0.3
2017-Dec-11 10:00N 44°19' E 008°30'0 0.4
2017-Dec-11 09:30N 44°19' E 008°30'0 0.4
2017-Dec-11 08:59N 44°19' E 008°30'4 7.8
2017-Dec-11 08:30N 44°16' E 008°27'1 1.2
2017-Dec-11 07:59N 44°16' E 008°28'1 1.3
2017-Dec-11 07:29N 44°16' E 008°27'0 0.0
2017-Dec-11 06:59N 44°16' E 008°27'0 0.2
2017-Dec-11 06:29N 44°16' E 008°27'0 0.2
2017-Dec-11 05:55N 44°16' E 008°27'1 3.2
2017-Dec-11 05:30N 44°17' E 008°28'2 3.6
2017-Dec-11 05:00N 44°19' E 008°29'0 0.0
2017-Dec-11 04:30N 44°19' E 008°29'0 0.0
2017-Dec-11 04:00N 44°19' E 008°29'0 0.0
2017-Dec-11 03:24N 44°19' E 008°29'0 0.0
2017-Dec-11 03:00N 44°19' E 008°29'0 0.0
2017-Dec-11 02:24N 44°19' E 008°29'0 0.0
2017-Dec-11 02:00N 44°19' E 008°29'0 0.0
2017-Dec-11 01:30N 44°19' E 008°29'0 0.0
2017-Dec-11 01:00N 44°19' E 008°29'0 0.0
2017-Dec-11 00:24N 44°19' E 008°29'0 0.0
2017-Dec-11 00:00N 44°19' E 008°29'0 0.0
2017-Dec-10 23:30N 44°19' E 008°29'0 0.0
2017-Dec-10 23:00N 44°19' E 008°29'0 0.0
2017-Dec-10 22:30N 44°19' E 008°29'0 0.0
2017-Dec-10 22:00N 44°19' E 008°29'0 0.0
2017-Dec-10 21:30N 44°19' E 008°29'0 0.0
2017-Dec-10 21:00N 44°19' E 008°29'0 0.0
2017-Dec-10 20:30N 44°19' E 008°29'0 0.0
2017-Dec-10 20:00N 44°19' E 008°29'0 0.0
2017-Dec-10 19:30N 44°19' E 008°29'0 0.0
2017-Dec-10 18:54N 44°19' E 008°29'0 0.0
2017-Dec-10 18:24N 44°19' E 008°29'0 0.0
2017-Dec-10 18:00N 44°19' E 008°29'0 0.0
2017-Dec-10 17:30N 44°19' E 008°29'0 0.0
2017-Dec-10 17:00N 44°19' E 008°29'0 0.0
2017-Dec-10 16:30N 44°19' E 008°29'0 0.0
2017-Dec-10 16:00N 44°19' E 008°29'0 0.0
2017-Dec-10 15:30N 44°19' E 008°29'0 0.0
2017-Dec-10 15:00N 44°19' E 008°29'0 0.0
2017-Dec-10 14:30N 44°19' E 008°29'0 0.0
2017-Dec-10 14:00N 44°19' E 008°29'0 0.0
2017-Dec-10 13:30N 44°19' E 008°29'0 0.0
2017-Dec-10 13:00N 44°19' E 008°29'0 0.0
2017-Dec-10 12:30N 44°19' E 008°29'0 0.0
2017-Dec-10 12:00N 44°19' E 008°29'0 0.0
2017-Dec-10 11:30N 44°19' E 008°29'0 0.0
2017-Dec-10 11:00N 44°19' E 008°29'0 0.0
2017-Dec-10 10:30N 44°19' E 008°29'0 0.0
2017-Dec-10 10:00N 44°19' E 008°29'0 0.0
2017-Dec-10 09:30N 44°19' E 008°29'1 1.3
2017-Dec-10 09:00N 44°18' E 008°30'2 4.6
2017-Dec-10 08:29N 44°17' E 008°28'0 0.2
2017-Dec-10 07:59N 44°17' E 008°28'0 0.2
2017-Dec-10 07:29N 44°17' E 008°28'1 2.9
2017-Dec-10 07:00N 44°18' E 008°29'1 1.9
2017-Dec-10 06:29N 44°19' E 008°29'0 0.0
2017-Dec-10 05:59N 44°19' E 008°29'0 0.0
2017-Dec-10 05:29N 44°19' E 008°29'0 0.0
2017-Dec-10 04:59N 44°19' E 008°29'0 0.0
2017-Dec-10 04:29N 44°19' E 008°29'0 0.0
2017-Dec-10 03:53N 44°19' E 008°29'0 0.0
2017-Dec-10 03:29N 44°19' E 008°29'0 0.0
2017-Dec-10 03:00N 44°19' E 008°29'0 0.0
2017-Dec-10 02:29N 44°19' E 008°29'0 0.0
2017-Dec-10 02:00N 44°19' E 008°29'0 0.0
2017-Dec-10 01:30N 44°19' E 008°29'0 0.0
2017-Dec-10 00:59N 44°19' E 008°29'0 0.0
2017-Dec-10 00:29N 44°19' E 008°29'0 0.0
2017-Dec-10 00:00N 44°19' E 008°29'0 0.0
2017-Dec-09 23:30N 44°19' E 008°29'0 0.0
2017-Dec-09 23:00N 44°19' E 008°29'0 0.0
2017-Dec-09 22:30N 44°19' E 008°29'0 0.0
2017-Dec-09 22:00N 44°19' E 008°29'0 0.0
2017-Dec-09 21:30N 44°19' E 008°29'0 0.0
2017-Dec-09 20:59N 44°19' E 008°29'0 0.0
2017-Dec-09 20:29N 44°19' E 008°29'0 0.0
2017-Dec-09 19:59N 44°19' E 008°29'0 0.0
2017-Dec-09 19:29N 44°19' E 008°29'0 0.0
2017-Dec-09 18:59N 44°19' E 008°29'0 0.0
2017-Dec-09 18:30N 44°19' E 008°29'0 0.0
2017-Dec-09 17:59N 44°19' E 008°29'0 0.0
2017-Dec-09 17:29N 44°19' E 008°29'0 0.0
2017-Dec-09 16:54N 44°19' E 008°29'1 1.4
2017-Dec-09 16:30N 44°19' E 008°30'1 0.3
2017-Dec-09 14:43N 44°18' E 008°29'0 0.0
2017-Dec-09 14:25N 44°18' E 008°29'0 0.0
2017-Dec-09 13:55N 44°18' E 008°29'0 0.0
2017-Dec-09 13:25N 44°18' E 008°29'0 0.7
2017-Dec-09 13:00N 44°19' E 008°29'0 0.5
2017-Dec-09 12:27N 44°19' E 008°30'0 0.0
2017-Dec-09 11:59N 44°19' E 008°30'0 0.4
2017-Dec-09 11:27N 44°19' E 008°30'4 7.9
2017-Dec-09 10:59N 44°16' E 008°27'1 2.0
2017-Dec-09 10:27N 44°17' E 008°27'0 0.0
2017-Dec-09 10:00N 44°17' E 008°27'0 0.0
2017-Dec-09 09:25N 44°17' E 008°27'0 0.6
2017-Dec-09 08:57N 44°17' E 008°28'1 1.9
2017-Dec-09 08:30N 44°16' E 008°28'0 0.9
2017-Dec-09 07:59N 44°16' E 008°28'2 3.2
2017-Dec-09 07:30N 44°18' E 008°29'2 3.1
2017-Dec-09 07:00N 44°19' E 008°30'1 1.6
2017-Dec-09 06:31N 44°19' E 008°31'1 1.2
2017-Dec-09 05:55N 44°19' E 008°30'0 1.0
2017-Dec-09 05:30N 44°19' E 008°30'1 1.5
2017-Dec-09 04:55N 44°19' E 008°29'0 0.0
2017-Dec-09 04:25N 44°19' E 008°29'0 0.0
2017-Dec-09 03:55N 44°19' E 008°29'0 0.0
2017-Dec-09 03:25N 44°19' E 008°29'0 0.0
2017-Dec-09 02:55N 44°19' E 008°29'0 0.0
2017-Dec-09 02:25N 44°19' E 008°29'0 0.0
2017-Dec-09 01:55N 44°19' E 008°29'0 0.0
2017-Dec-09 01:25N 44°19' E 008°29'0 0.0
2017-Dec-09 00:52N 44°19' E 008°29'0 0.0
2017-Dec-09 00:25N 44°19' E 008°29'0 0.0
2017-Dec-08 23:55N 44°19' E 008°29'0 0.0
2017-Dec-08 23:25N 44°19' E 008°29'0 0.0
2017-Dec-08 22:55N 44°19' E 008°29'0 0.0
2017-Dec-08 22:28N 44°19' E 008°29'0 0.0
2017-Dec-08 21:55N 44°19' E 008°29'0 0.0
2017-Dec-08 21:25N 44°19' E 008°29'0 0.0
2017-Dec-08 20:55N 44°19' E 008°29'0 0.0
2017-Dec-08 20:25N 44°19' E 008°29'0 0.0
2017-Dec-08 19:55N 44°19' E 008°29'0 0.0
2017-Dec-08 19:25N 44°19' E 008°29'0 0.0
2017-Dec-08 18:55N 44°19' E 008°29'0 0.0
2017-Dec-08 18:25N 44°19' E 008°29'0 0.0
2017-Dec-08 17:55N 44°19' E 008°29'0 0.0
2017-Dec-08 17:25N 44°19' E 008°29'0 0.0
2017-Dec-08 16:49N 44°19' E 008°29'0 0.0
2017-Dec-08 16:25N 44°19' E 008°29'0 0.0
2017-Dec-08 15:55N 44°19' E 008°29'0 0.0
2017-Dec-08 15:25N 44°19' E 008°29'0 0.0
2017-Dec-08 14:55N 44°19' E 008°29'0 0.0
2017-Dec-08 14:25N 44°19' E 008°29'0 0.0
2017-Dec-08 13:55N 44°19' E 008°29'0 0.0
2017-Dec-08 13:25N 44°19' E 008°29'0 0.0
2017-Dec-08 12:55N 44°19' E 008°29'0 0.0
2017-Dec-08 12:25N 44°19' E 008°29'0 0.0
2017-Dec-08 11:55N 44°19' E 008°29'0 0.0
2017-Dec-08 11:25N 44°19' E 008°29'0 0.0
2017-Dec-08 10:55N 44°19' E 008°29'0 0.0
2017-Dec-08 10:25N 44°19' E 008°29'0 0.0
2017-Dec-08 09:55N 44°19' E 008°29'0 0.0
2017-Dec-08 09:25N 44°19' E 008°29'0 0.0
2017-Dec-08 08:55N 44°19' E 008°29'0 0.0
2017-Dec-08 08:25N 44°19' E 008°29'0 0.0
2017-Dec-08 07:55N 44°19' E 008°29'0 1.0
2017-Dec-08 07:29N 44°19' E 008°30'1 1.8
2017-Dec-08 07:00N 44°19' E 008°31'1 2.1
2017-Dec-08 06:26N 44°19' E 008°29'0 0.0
2017-Dec-08 05:56N 44°19' E 008°29'0 0.0
2017-Dec-08 05:26N 44°19' E 008°29'0 0.0
2017-Dec-08 04:56N 44°19' E 008°29'0 0.0
2017-Dec-08 04:26N 44°19' E 008°29'0 0.0
2017-Dec-08 03:56N 44°19' E 008°29'0 0.0
2017-Dec-08 03:26N 44°19' E 008°29'0 0.0
2017-Dec-08 02:56N 44°19' E 008°29'0 0.0
2017-Dec-08 02:26N 44°19' E 008°29'0 0.0
2017-Dec-08 01:56N 44°19' E 008°29'0 0.0
2017-Dec-08 01:26N 44°19' E 008°29'0 0.0
2017-Dec-08 00:56N 44°19' E 008°29'0 0.0
2017-Dec-08 00:26N 44°19' E 008°29'0 0.0
2017-Dec-07 23:56N 44°19' E 008°29'0 0.0
2017-Dec-07 23:14N 44°19' E 008°29'0 0.0
2017-Dec-07 22:56N 44°19' E 008°29'0 0.0
2017-Dec-07 22:26N 44°19' E 008°29'0 0.0
2017-Dec-07 21:56N 44°19' E 008°29'0 0.0
2017-Dec-07 21:26N 44°19' E 008°29'0 0.0
2017-Dec-07 20:56N 44°19' E 008°29'0 0.0
2017-Dec-07 20:26N 44°19' E 008°29'0 0.0
2017-Dec-07 19:56N 44°19' E 008°29'0 0.0
2017-Dec-07 19:26N 44°19' E 008°29'0 0.0
2017-Dec-07 18:56N 44°19' E 008°29'0 0.0
2017-Dec-07 18:26N 44°19' E 008°29'0 0.0
2017-Dec-07 17:56N 44°19' E 008°29'0 0.0
2017-Dec-07 17:26N 44°19' E 008°29'0 0.0
2017-Dec-07 16:50N 44°19' E 008°29'0 0.0
2017-Dec-07 16:26N 44°19' E 008°29'0 0.0
2017-Dec-07 15:56N 44°19' E 008°29'0 0.0
2017-Dec-07 15:26N 44°19' E 008°29'0 0.0
2017-Dec-07 14:56N 44°19' E 008°29'0 0.0
2017-Dec-07 14:26N 44°19' E 008°29'0 1.1
2017-Dec-07 14:00N 44°19' E 008°30'0 0.4
2017-Dec-07 13:19N 44°19' E 008°29'1 2.4
2017-Dec-07 13:00N 44°19' E 008°30'1 1.6
2017-Dec-07 12:29N 44°19' E 008°29'0 0.0
2017-Dec-07 11:59N 44°19' E 008°29'0 0.0
2017-Dec-07 11:29N 44°19' E 008°29'1 1.6
2017-Dec-07 11:00N 44°19' E 008°30'3 6.2
2017-Dec-07 10:30N 44°16' E 008°28'0 0.2
2017-Dec-07 09:57N 44°16' E 008°28'0 0.3
2017-Dec-07 09:27N 44°17' E 008°28'1 2.2
2017-Dec-07 09:00N 44°16' E 008°27'0 0.0
2017-Dec-07 08:30N 44°16' E 008°27'0 0.0
2017-Dec-07 08:00N 44°16' E 008°27'1 2.6
2017-Dec-07 07:30N 44°17' E 008°28'2 3.9
2017-Dec-07 06:55N 44°19' E 008°30'1 1.7
2017-Dec-07 06:30N 44°19' E 008°31'1 1.9
2017-Dec-07 05:58N 44°19' E 008°29'0 0.0
2017-Dec-07 05:25N 44°19' E 008°29'0 0.0
2017-Dec-07 04:58N 44°19' E 008°29'0 0.0
2017-Dec-07 04:19N 44°19' E 008°29'0 0.0
2017-Dec-07 03:55N 44°19' E 008°29'0 0.0
2017-Dec-07 03:25N 44°19' E 008°29'0 0.0
2017-Dec-07 02:55N 44°19' E 008°29'0 0.0
2017-Dec-07 02:25N 44°19' E 008°29'0 0.0
2017-Dec-07 01:55N 44°19' E 008°29'0 0.0
2017-Dec-07 01:25N 44°19' E 008°29'0 0.0
2017-Dec-07 00:43N 44°19' E 008°29'0 0.0
2017-Dec-07 00:19N 44°19' E 008°29'0 0.0
2017-Dec-06 23:55N 44°19' E 008°29'0 0.0
2017-Dec-06 23:25N 44°19' E 008°29'0 0.0
2017-Dec-06 22:52N 44°19' E 008°29'0 0.0
2017-Dec-06 22:25N 44°19' E 008°29'0 0.0
2017-Dec-06 21:55N 44°19' E 008°29'0 0.0
2017-Dec-06 21:13N 44°19' E 008°29'0 0.0
2017-Dec-06 20:55N 44°19' E 008°29'  
Track history (hours):
 
Tides and Currents Weather Stations Pressure Air Temp Water Temp Dewpoint Dewpoint Depression Visibility Wind Speed Wind Dir Waves Ship Positions

Anna Noli

Last reported at 2017-Dec-16 10:44 UTC. Time now 2017-Dec-17 04:25 UTC.
Position N 44°19' E 008°29'.

Type: Tug. MMSI: 247046500.

Date/timePositionNaut miles runAvg speedWind from/ knotsBaromVisibWave heightAir tempDewpointWater temp
2017-Dec-16 10:44N 44°19' E 008°29'0 0.0
2017-Dec-16 10:26N 44°19' E 008°29'0 0.0
2017-Dec-16 09:59N 44°19' E 008°29'0 0.0
2017-Dec-16 09:23N 44°19' E 008°29'0 0.0
2017-Dec-16 08:59N 44°19' E 008°29'0 0.0
2017-Dec-16 08:29N 44°19' E 008°29'0 0.0
2017-Dec-16 07:53N 44°19' E 008°29'0 0.0
2017-Dec-16 07:29N 44°19' E 008°29'0 0.0
2017-Dec-16 06:59N 44°19' E 008°29'0 0.0
2017-Dec-16 06:29N 44°19' E 008°29'0 0.0
2017-Dec-16 05:59N 44°19' E 008°29'0 0.0
2017-Dec-16 05:29N 44°19' E 008°29'0 0.0
2017-Dec-16 04:59N 44°19' E 008°29'0 0.0
2017-Dec-16 04:29N 44°19' E 008°29'0 0.0
2017-Dec-16 03:59N 44°19' E 008°29'0 0.0
2017-Dec-16 03:29N 44°19' E 008°29'0 0.0
2017-Dec-16 02:59N 44°19' E 008°29'0 0.0
2017-Dec-16 02:29N 44°19' E 008°29'0 0.0
2017-Dec-16 01:59N 44°19' E 008°29'0 0.0
2017-Dec-16 01:29N 44°19' E 008°29'0 0.0
2017-Dec-16 00:59N 44°19' E 008°29'0 0.0
2017-Dec-16 00:29N 44°19' E 008°29'0 0.0
2017-Dec-15 23:59N 44°19' E 008°29'0 0.0
2017-Dec-15 23:29N 44°19' E 008°29'0 0.0
2017-Dec-15 22:59N 44°19' E 008°29'0 0.0
2017-Dec-15 22:29N 44°19' E 008°29'0 0.0
2017-Dec-15 21:59N 44°19' E 008°29'0 0.0
2017-Dec-15 21:29N 44°19' E 008°29'0 0.0
2017-Dec-15 20:53N 44°19' E 008°29'0 0.0
2017-Dec-15 20:29N 44°19' E 008°29'0 0.0
2017-Dec-15 19:59N 44°19' E 008°29'0 0.0
2017-Dec-15 19:29N 44°19' E 008°29'0 0.0
2017-Dec-15 18:59N 44°19' E 008°29'0 0.0
2017-Dec-15 18:29N 44°19' E 008°29'0 0.0
2017-Dec-15 17:59N 44°19' E 008°29'0 0.0
2017-Dec-15 17:29N 44°19' E 008°29'0 0.0
2017-Dec-15 16:59N 44°19' E 008°29'0 0.0
2017-Dec-15 16:29N 44°19' E 008°29'0 0.0
2017-Dec-15 15:59N 44°19' E 008°29'0 0.0
2017-Dec-15 15:29N 44°19' E 008°29'0 0.0
2017-Dec-15 14:59N 44°19' E 008°29'0 0.0
2017-Dec-15 14:29N 44°19' E 008°29'0 0.0
2017-Dec-15 13:56N 44°19' E 008°29'0 0.0
2017-Dec-15 13:26N 44°19' E 008°29'0 0.0
2017-Dec-15 12:56N 44°19' E 008°29'0 0.0
2017-Dec-15 12:26N 44°19' E 008°29'0 0.0
2017-Dec-15 11:56N 44°19' E 008°29'0 0.0
2017-Dec-15 11:29N 44°19' E 008°29'0 0.0
2017-Dec-15 10:59N 44°19' E 008°29'0 0.0
2017-Dec-15 10:26N 44°19' E 008°29'2 5.2
2017-Dec-15 10:00N 44°16' E 008°30'5 9.6
2017-Dec-15 09:30N 44°12' E 008°27'4 8.8
2017-Dec-15 09:00N 44°08' E 008°25'11 9.6
2017-Dec-15 07:50N 43°59' E 008°15'11 0.4
2017-Dec-14 06:32N 44°07' E 008°24'010.3
2017-Dec-14 06:30N 44°08' E 008°24'611.5
2017-Dec-14 06:00N 44°13' E 008°28'611.7
2017-Dec-14 05:30N 44°18' E 008°30'1 1.2
2017-Dec-14 04:55N 44°19' E 008°29'0 0.0
2017-Dec-13 21:07N 44°19' E 008°29'0 0.0
2017-Dec-13 20:43N 44°19' E 008°29'0 0.0
2017-Dec-13 19:31N 44°19' E 008°29'0 0.0
2017-Dec-13 19:19N 44°19' E 008°29'0 0.0
2017-Dec-13 18:55N 44°19' E 008°29'0 0.0
2017-Dec-13 18:25N 44°19' E 008°29'0 0.0
2017-Dec-13 17:55N 44°19' E 008°29'0 0.0
2017-Dec-13 17:25N 44°19' E 008°29'0 0.0
2017-Dec-13 16:37N 44°19' E 008°29'0 0.0
2017-Dec-13 15:46N 44°19' E 008°29'0 0.0
2017-Dec-13 15:28N 44°19' E 008°29'0 0.0
2017-Dec-13 14:58N 44°19' E 008°29'0 0.0
2017-Dec-13 14:22N 44°19' E 008°29'0 0.0
2017-Dec-13 13:58N 44°19' E 008°29'0 0.0
2017-Dec-13 13:28N 44°19' E 008°29'0 0.0
2017-Dec-13 12:58N 44°19' E 008°29'0 0.0
2017-Dec-13 12:28N 44°19' E 008°29'0 0.0
2017-Dec-13 11:49N 44°19' E 008°29'0 0.0
2017-Dec-13 11:25N 44°19' E 008°29'0 0.0
2017-Dec-13 10:49N 44°19' E 008°29'0 0.0
2017-Dec-13 10:25N 44°19' E 008°29'0 0.0
2017-Dec-13 09:55N 44°19' E 008°29'0 0.0
2017-Dec-13 09:28N 44°19' E 008°29'0 0.0
2017-Dec-13 08:55N 44°19' E 008°29'0 0.0
2017-Dec-13 08:25N 44°19' E 008°29'0 0.0
2017-Dec-13 07:55N 44°19' E 008°29'0 0.0
2017-Dec-13 07:28N 44°19' E 008°29'0 0.0
2017-Dec-13 06:55N 44°19' E 008°29'0 0.0
2017-Dec-13 06:25N 44°19' E 008°29'0 0.0
2017-Dec-13 05:55N 44°19' E 008°29'0 0.0
2017-Dec-13 05:28N 44°19' E 008°29'0 0.0
2017-Dec-13 04:55N 44°19' E 008°29'0 0.0
2017-Dec-13 04:25N 44°19' E 008°29'0 0.0
2017-Dec-13 03:58N 44°19' E 008°29'0 0.0
2017-Dec-13 03:25N 44°19' E 008°29'0 0.0
2017-Dec-13 02:58N 44°19' E 008°29'0 0.0
2017-Dec-13 02:25N 44°19' E 008°29'0 0.0
2017-Dec-13 01:55N 44°19' E 008°29'0 0.0
2017-Dec-13 01:25N 44°19' E 008°29'0 0.0
2017-Dec-13 00:55N 44°19' E 008°29'0 0.0
2017-Dec-13 00:25N 44°19' E 008°29'0 0.0
2017-Dec-12 23:55N 44°19' E 008°29'0 0.0
2017-Dec-12 23:25N 44°19' E 008°29'0 0.0
2017-Dec-12 22:55N 44°19' E 008°29'0 0.0
2017-Dec-12 22:25N 44°19' E 008°29'0 0.0
2017-Dec-12 21:55N 44°19' E 008°29'0 0.0
2017-Dec-12 21:25N 44°19' E 008°29'0 0.0
2017-Dec-12 20:55N 44°19' E 008°29'0 0.0
2017-Dec-12 20:25N 44°19' E 008°29'0 0.0
2017-Dec-12 19:55N 44°19' E 008°29'0 0.0
2017-Dec-12 19:19N 44°19' E 008°29'0 0.0
2017-Dec-12 18:55N 44°19' E 008°29'0 0.0
2017-Dec-12 18:28N 44°19' E 008°29'0 0.0
2017-Dec-12 17:58N 44°19' E 008°29'0 0.0
2017-Dec-12 17:25N 44°19' E 008°29'0 0.0
2017-Dec-12 16:49N 44°19' E 008°29'0 0.0
2017-Dec-12 16:25N 44°19' E 008°29'0 0.0
2017-Dec-12 15:55N 44°19' E 008°29'0 0.0
2017-Dec-12 15:25N 44°19' E 008°29'0 0.0
2017-Dec-12 14:58N 44°19' E 008°29'0 0.0
2017-Dec-12 14:28N 44°19' E 008°29'0 0.0
2017-Dec-12 13:55N 44°19' E 008°29'0 0.0
2017-Dec-12 13:25N 44°19' E 008°29'0 0.0
2017-Dec-12 12:58N 44°19' E 008°29'0 0.1
2017-Dec-12 12:31N 44°19' E 008°29'1 1.5
2017-Dec-12 12:00N 44°19' E 008°30'0 0.6
2017-Dec-12 11:26N 44°19' E 008°30'0 1.0
2017-Dec-12 10:58N 44°19' E 008°29'0 0.0
2017-Dec-12 10:28N 44°19' E 008°29'0 0.0
2017-Dec-12 09:58N 44°19' E 008°29'0 0.0
2017-Dec-12 09:28N 44°19' E 008°29'0 0.0
2017-Dec-12 08:58N 44°19' E 008°29'0 0.0
2017-Dec-12 08:28N 44°19' E 008°29'0 0.0
2017-Dec-12 06:07N 44°19' E 008°29'0 0.0
2017-Dec-12 05:49N 44°19' E 008°29'0 0.0
2017-Dec-11 23:40N 44°19' E 008°29'0 0.0
2017-Dec-11 22:01N 44°19' E 008°29'0 0.1
2017-Dec-11 21:47N 44°19' E 008°29'1 0.3
2017-Dec-11 19:47N 44°19' E 008°30'0 0.4
2017-Dec-11 19:26N 44°19' E 008°30'0 0.2
2017-Dec-11 19:00N 44°19' E 008°30'1 1.1
2017-Dec-11 18:30N 44°19' E 008°29'0 0.0
2017-Dec-11 18:00N 44°19' E 008°29'0 0.0
2017-Dec-11 17:30N 44°19' E 008°29'0 0.0
2017-Dec-11 17:00N 44°19' E 008°29'0 0.0
2017-Dec-11 16:30N 44°19' E 008°29'0 0.0
2017-Dec-11 16:00N 44°19' E 008°29'0 0.0
2017-Dec-11 15:30N 44°19' E 008°29'0 0.0
2017-Dec-11 15:00N 44°19' E 008°29'0 0.0
2017-Dec-11 14:30N 44°19' E 008°29'0 0.0
2017-Dec-11 14:00N 44°19' E 008°29'3 5.3
2017-Dec-11 13:30N 44°16' E 008°28'1 1.4
2017-Dec-11 12:59N 44°16' E 008°27'4 7.9
2017-Dec-11 12:30N 44°19' E 008°30'1 1.4
2017-Dec-11 12:00N 44°19' E 008°29'0 0.0
2017-Dec-11 11:30N 44°19' E 008°29'0 0.0
2017-Dec-11 11:00N 44°19' E 008°29'0 0.9
2017-Dec-11 10:30N 44°19' E 008°30'0 0.3
2017-Dec-11 10:00N 44°19' E 008°30'0 0.4
2017-Dec-11 09:30N 44°19' E 008°30'0 0.4
2017-Dec-11 08:59N 44°19' E 008°30'4 7.8
2017-Dec-11 08:30N 44°16' E 008°27'1 1.2
2017-Dec-11 07:59N 44°16' E 008°28'1 1.3
2017-Dec-11 07:29N 44°16' E 008°27'0 0.0
2017-Dec-11 06:59N 44°16' E 008°27'0 0.2
2017-Dec-11 06:29N 44°16' E 008°27'0 0.2
2017-Dec-11 05:55N 44°16' E 008°27'1 3.2
2017-Dec-11 05:30N 44°17' E 008°28'2 3.6
2017-Dec-11 05:00N 44°19' E 008°29'0 0.0
2017-Dec-11 04:30N 44°19' E 008°29'0 0.0
2017-Dec-11 04:00N 44°19' E 008°29'0 0.0
2017-Dec-11 03:24N 44°19' E 008°29'0 0.0
2017-Dec-11 03:00N 44°19' E 008°29'0 0.0
2017-Dec-11 02:24N 44°19' E 008°29'0 0.0
2017-Dec-11 02:00N 44°19' E 008°29'0 0.0
2017-Dec-11 01:30N 44°19' E 008°29'0 0.0
2017-Dec-11 01:00N 44°19' E 008°29'0 0.0
2017-Dec-11 00:24N 44°19' E 008°29'0 0.0
2017-Dec-11 00:00N 44°19' E 008°29'0 0.0
2017-Dec-10 23:30N 44°19' E 008°29'0 0.0
2017-Dec-10 23:00N 44°19' E 008°29'0 0.0
2017-Dec-10 22:30N 44°19' E 008°29'0 0.0
2017-Dec-10 22:00N 44°19' E 008°29'0 0.0
2017-Dec-10 21:30N 44°19' E 008°29'0 0.0
2017-Dec-10 21:00N 44°19' E 008°29'0 0.0
2017-Dec-10 20:30N 44°19' E 008°29'0 0.0
2017-Dec-10 20:00N 44°19' E 008°29'0 0.0
2017-Dec-10 19:30N 44°19' E 008°29'0 0.0
2017-Dec-10 18:54N 44°19' E 008°29'0 0.0
2017-Dec-10 18:24N 44°19' E 008°29'0 0.0
2017-Dec-10 18:00N 44°19' E 008°29'0 0.0
2017-Dec-10 17:30N 44°19' E 008°29'0 0.0
2017-Dec-10 17:00N 44°19' E 008°29'0 0.0
2017-Dec-10 16:30N 44°19' E 008°29'0 0.0
2017-Dec-10 16:00N 44°19' E 008°29'0 0.0
2017-Dec-10 15:30N 44°19' E 008°29'0 0.0
2017-Dec-10 15:00N 44°19' E 008°29'0 0.0
2017-Dec-10 14:30N 44°19' E 008°29'0 0.0
2017-Dec-10 14:00N 44°19' E 008°29'0 0.0
2017-Dec-10 13:30N 44°19' E 008°29'0 0.0
2017-Dec-10 13:00N 44°19' E 008°29'0 0.0
2017-Dec-10 12:30N 44°19' E 008°29'0 0.0
2017-Dec-10 12:00N 44°19' E 008°29'0 0.0
2017-Dec-10 11:30N 44°19' E 008°29'0 0.0
2017-Dec-10 11:00N 44°19' E 008°29'0 0.0
2017-Dec-10 10:30N 44°19' E 008°29'0 0.0
2017-Dec-10 10:00N 44°19' E 008°29'0 0.0
2017-Dec-10 09:30N 44°19' E 008°29'1 1.3
2017-Dec-10 09:00N 44°18' E 008°30'2 4.6
2017-Dec-10 08:29N 44°17' E 008°28'0 0.2
2017-Dec-10 07:59N 44°17' E 008°28'0 0.2
2017-Dec-10 07:29N 44°17' E 008°28'1 2.9
2017-Dec-10 07:00N 44°18' E 008°29'1 1.9
2017-Dec-10 06:29N 44°19' E 008°29'0 0.0
2017-Dec-10 05:59N 44°19' E 008°29'0 0.0
2017-Dec-10 05:29N 44°19' E 008°29'0 0.0
2017-Dec-10 04:59N 44°19' E 008°29'0 0.0
2017-Dec-10 04:29N 44°19' E 008°29'0 0.0
2017-Dec-10 03:53N 44°19' E 008°29'0 0.0
2017-Dec-10 03:29N 44°19' E 008°29'0 0.0
2017-Dec-10 03:00N 44°19' E 008°29'0 0.0
2017-Dec-10 02:29N 44°19' E 008°29'0 0.0
2017-Dec-10 02:00N 44°19' E 008°29'0 0.0
2017-Dec-10 01:30N 44°19' E 008°29'0 0.0
2017-Dec-10 00:59N 44°19' E 008°29'0 0.0
2017-Dec-10 00:29N 44°19' E 008°29'0 0.0
2017-Dec-10 00:00N 44°19' E 008°29'0 0.0
2017-Dec-09 23:30N 44°19' E 008°29'0 0.0
2017-Dec-09 23:00N 44°19' E 008°29'0 0.0
2017-Dec-09 22:30N 44°19' E 008°29'0 0.0
2017-Dec-09 22:00N 44°19' E 008°29'0 0.0
2017-Dec-09 21:30N 44°19' E 008°29'0 0.0
2017-Dec-09 20:59N 44°19' E 008°29'0 0.0
2017-Dec-09 20:29N 44°19' E 008°29'0 0.0
2017-Dec-09 19:59N 44°19' E 008°29'0 0.0
2017-Dec-09 19:29N 44°19' E 008°29'0 0.0
2017-Dec-09 18:59N 44°19' E 008°29'0 0.0
2017-Dec-09 18:30N 44°19' E 008°29'0 0.0
2017-Dec-09 17:59N 44°19' E 008°29'0 0.0
2017-Dec-09 17:29N 44°19' E 008°29'0 0.0
2017-Dec-09 16:54N 44°19' E 008°29'1 1.4
2017-Dec-09 16:30N 44°19' E 008°30'1 0.3
2017-Dec-09 14:43N 44°18' E 008°29'0 0.0
2017-Dec-09 14:25N 44°18' E 008°29'0 0.0
2017-Dec-09 13:55N 44°18' E 008°29'0 0.0
2017-Dec-09 13:25N 44°18' E 008°29'0 0.7
2017-Dec-09 13:00N 44°19' E 008°29'0 0.5
2017-Dec-09 12:27N 44°19' E 008°30'0 0.0
2017-Dec-09 11:59N 44°19' E 008°30'0 0.4
2017-Dec-09 11:27N 44°19' E 008°30'4 7.9
2017-Dec-09 10:59N 44°16' E 008°27'1 2.0
2017-Dec-09 10:27N 44°17' E 008°27'0 0.0
2017-Dec-09 10:00N 44°17' E 008°27'0 0.0
2017-Dec-09 09:25N 44°17' E 008°27'0 0.6
2017-Dec-09 08:57N 44°17' E 008°28'1 1.9
2017-Dec-09 08:30N 44°16' E 008°28'0 0.9
2017-Dec-09 07:59N 44°16' E 008°28'2 3.2
2017-Dec-09 07:30N 44°18' E 008°29'2 3.1
2017-Dec-09 07:00N 44°19' E 008°30'1 1.6
2017-Dec-09 06:31N 44°19' E 008°31'1 1.2
2017-Dec-09 05:55N 44°19' E 008°30'0 1.0
2017-Dec-09 05:30N 44°19' E 008°30'1 1.5
2017-Dec-09 04:55N 44°19' E 008°29'0 0.0
2017-Dec-09 04:25N 44°19' E 008°29'0 0.0
2017-Dec-09 03:55N 44°19' E 008°29'0 0.0
2017-Dec-09 03:25N 44°19' E 008°29'0 0.0
2017-Dec-09 02:55N 44°19' E 008°29'0 0.0
2017-Dec-09 02:25N 44°19' E 008°29'0 0.0
2017-Dec-09 01:55N 44°19' E 008°29'0 0.0
2017-Dec-09 01:25N 44°19' E 008°29'0 0.0
2017-Dec-09 00:52N 44°19' E 008°29'0 0.0
2017-Dec-09 00:25N 44°19' E 008°29'0 0.0
2017-Dec-08 23:55N 44°19' E 008°29'0 0.0
2017-Dec-08 23:25N 44°19' E 008°29'0 0.0
2017-Dec-08 22:55N 44°19' E 008°29'0 0.0
2017-Dec-08 22:28N 44°19' E 008°29'0 0.0
2017-Dec-08 21:55N 44°19' E 008°29'0 0.0
2017-Dec-08 21:25N 44°19' E 008°29'0 0.0
2017-Dec-08 20:55N 44°19' E 008°29'0 0.0
2017-Dec-08 20:25N 44°19' E 008°29'0 0.0
2017-Dec-08 19:55N 44°19' E 008°29'0 0.0
2017-Dec-08 19:25N 44°19' E 008°29'0 0.0
2017-Dec-08 18:55N 44°19' E 008°29'0 0.0
2017-Dec-08 18:25N 44°19' E 008°29'0 0.0
2017-Dec-08 17:55N 44°19' E 008°29'0 0.0
2017-Dec-08 17:25N 44°19' E 008°29'0 0.0
2017-Dec-08 16:49N 44°19' E 008°29'0 0.0
2017-Dec-08 16:25N 44°19' E 008°29'0 0.0
2017-Dec-08 15:55N 44°19' E 008°29'0 0.0
2017-Dec-08 15:25N 44°19' E 008°29'0 0.0
2017-Dec-08 14:55N 44°19' E 008°29'0 0.0
2017-Dec-08 14:25N 44°19' E 008°29'0 0.0
2017-Dec-08 13:55N 44°19' E 008°29'0 0.0
2017-Dec-08 13:25N 44°19' E 008°29'0 0.0
2017-Dec-08 12:55N 44°19' E 008°29'0 0.0
2017-Dec-08 12:25N 44°19' E 008°29'0 0.0
2017-Dec-08 11:55N 44°19' E 008°29'0 0.0
2017-Dec-08 11:25N 44°19' E 008°29'0 0.0
2017-Dec-08 10:55N 44°19' E 008°29'0 0.0
2017-Dec-08 10:25N 44°19' E 008°29'0 0.0
2017-Dec-08 09:55N 44°19' E 008°29'0 0.0
2017-Dec-08 09:25N 44°19' E 008°29'0 0.0
2017-Dec-08 08:55N 44°19' E 008°29'0 0.0
2017-Dec-08 08:25N 44°19' E 008°29'0 0.0
2017-Dec-08 07:55N 44°19' E 008°29'0 1.0
2017-Dec-08 07:29N 44°19' E 008°30'1 1.8
2017-Dec-08 07:00N 44°19' E 008°31'1 2.1
2017-Dec-08 06:26N 44°19' E 008°29'0 0.0
2017-Dec-08 05:56N 44°19' E 008°29'0 0.0
2017-Dec-08 05:26N 44°19' E 008°29'0 0.0
2017-Dec-08 04:56N 44°19' E 008°29'0 0.0
2017-Dec-08 04:26N 44°19' E 008°29'0 0.0
2017-Dec-08 03:56N 44°19' E 008°29'0 0.0
2017-Dec-08 03:26N 44°19' E 008°29'0 0.0
2017-Dec-08 02:56N 44°19' E 008°29'0 0.0
2017-Dec-08 02:26N 44°19' E 008°29'0 0.0
2017-Dec-08 01:56N 44°19' E 008°29'0 0.0
2017-Dec-08 01:26N 44°19' E 008°29'0 0.0
2017-Dec-08 00:56N 44°19' E 008°29'0 0.0
2017-Dec-08 00:26N 44°19' E 008°29'0 0.0
2017-Dec-07 23:56N 44°19' E 008°29'0 0.0
2017-Dec-07 23:14N 44°19' E 008°29'0 0.0
2017-Dec-07 22:56N 44°19' E 008°29'0 0.0
2017-Dec-07 22:26N 44°19' E 008°29'0 0.0
2017-Dec-07 21:56N 44°19' E 008°29'0 0.0
2017-Dec-07 21:26N 44°19' E 008°29'0 0.0
2017-Dec-07 20:56N 44°19' E 008°29'0 0.0
2017-Dec-07 20:26N 44°19' E 008°29'0 0.0
2017-Dec-07 19:56N 44°19' E 008°29'0 0.0
2017-Dec-07 19:26N 44°19' E 008°29'0 0.0
2017-Dec-07 18:56N 44°19' E 008°29'0 0.0
2017-Dec-07 18:26N 44°19' E 008°29'0 0.0
2017-Dec-07 17:56N 44°19' E 008°29'0 0.0
2017-Dec-07 17:26N 44°19' E 008°29'0 0.0
2017-Dec-07 16:50N 44°19' E 008°29'0 0.0
2017-Dec-07 16:26N 44°19' E 008°29'0 0.0
2017-Dec-07 15:56N 44°19' E 008°29'0 0.0
2017-Dec-07 15:26N 44°19' E 008°29'0 0.0
2017-Dec-07 14:56N 44°19' E 008°29'0 0.0
2017-Dec-07 14:26N 44°19' E 008°29'0 1.1
2017-Dec-07 14:00N 44°19' E 008°30'0 0.4
2017-Dec-07 13:19N 44°19' E 008°29'1 2.4
2017-Dec-07 13:00N 44°19' E 008°30'1 1.6
2017-Dec-07 12:29N 44°19' E 008°29'0 0.0
2017-Dec-07 11:59N 44°19' E 008°29'0 0.0
2017-Dec-07 11:29N 44°19' E 008°29'1 1.6
2017-Dec-07 11:00N 44°19' E 008°30'3 6.2
2017-Dec-07 10:30N 44°16' E 008°28'0 0.2
2017-Dec-07 09:57N 44°16' E 008°28'0 0.3
2017-Dec-07 09:27N 44°17' E 008°28'1 2.2
2017-Dec-07 09:00N 44°16' E 008°27'0 0.0
2017-Dec-07 08:30N 44°16' E 008°27'0 0.0
2017-Dec-07 08:00N 44°16' E 008°27'1 2.6
2017-Dec-07 07:30N 44°17' E 008°28'2 3.9
2017-Dec-07 06:55N 44°19' E 008°30'1 1.7
2017-Dec-07 06:30N 44°19' E 008°31'1 1.9
2017-Dec-07 05:58N 44°19' E 008°29'0 0.0
2017-Dec-07 05:25N 44°19' E 008°29'0 0.0
2017-Dec-07 04:58N 44°19' E 008°29'0 0.0
2017-Dec-07 04:19N 44°19' E 008°29'0 0.0
2017-Dec-07 03:55N 44°19' E 008°29'0 0.0
2017-Dec-07 03:25N 44°19' E 008°29'0 0.0
2017-Dec-07 02:55N 44°19' E 008°29'0 0.0
2017-Dec-07 02:25N 44°19' E 008°29'0 0.0
2017-Dec-07 01:55N 44°19' E 008°29'0 0.0
2017-Dec-07 01:25N 44°19' E 008°29'0 0.0
2017-Dec-07 00:43N 44°19' E 008°29'0 0.0
2017-Dec-07 00:19N 44°19' E 008°29'0 0.0
2017-Dec-06 23:55N 44°19' E 008°29'0 0.0
2017-Dec-06 23:25N 44°19' E 008°29'0 0.0
2017-Dec-06 22:52N 44°19' E 008°29'0 0.0
2017-Dec-06 22:25N 44°19' E 008°29'0 0.0
2017-Dec-06 21:55N 44°19' E 008°29'0 0.0
2017-Dec-06 21:13N 44°19' E 008°29'0 0.0
2017-Dec-06 20:55N 44°19' E 008°29'  

Dump ship's entire track history